KOLU

Columbus Municipal Airport

Columbus, Nebraska, USA
METAR KOLU 191456Z AUTO 21008KT 10SM CLR 01/M04 A2971 RMK AO2 SLP075 T00111044 56007 FZRANO
Observed Flight Rules
Jan-19 @ 14:56 UTC (23 minutes ago) Visual Flight Rules
Wind Visibility Clouds
210° at 8 knots 10 miles
  • Clear skies
Temperatures Readings
Current 1°C / 34°F
Dewpoint -4°C / 25°F
Humidity 70%
Altimeter 29.71" Hg
Pressure 1007.5 hPa
Elevation 440
METAR KOLU 191456Z AUTO 21008KT 10SM CLR 01/M04 A2971 RMK AO2 SLP075 T00111044 56007 FZRANO
Observed Flight Rules
Jan-19 @ 14:56 UTC
(23 minutes ago)
VFR
Wind Visibility
210° at 8 knots 10 miles
Clouds
  • Clear skies
Temperature Dewpoint
1°C / 34°F -4°C / 25°F
Humidity Altimeter Pressure
70% 29.71" Hg 1007.5 hPa